Time;durP1;ratioP1;P1;durP2;ratioP2;P2;SDS_P1;SDS_P2;PMS_P1;PMS_P2;Temp;Humidity;BMP_temperature;BMP_pressure;BME280_temperature;BME280_humidity;BME280_pressure;Samples;Min_cycle;Max_cycle;Signal;HPM_P1;HPM_P2
2022/07/22 00:01:13;;;;;;;0.50;0.50;;;20.70;99.90;;;;;;4418703;32;20065;-62
2022/07/22 00:03:38;;;;;;;0.50;0.50;;;20.80;99.90;;;;;;4446279;32;20096;-62
2022/07/22 00:06:04;;;;;;;0.50;0.50;;;20.80;99.90;;;;;;4431824;32;20068;-62
2022/07/22 00:08:30;;;;;;;0.52;0.52;;;20.90;99.90;;;;;;4445724;32;20138;-62
2022/07/22 00:10:55;;;;;;;0.47;0.47;;;20.90;99.90;;;;;;4446096;32;20081;-62
2022/07/22 00:13:21;;;;;;;0.40;0.40;;;20.90;99.90;;;;;;4431665;32;20077;-62
2022/07/22 00:15:46;;;;;;;0.52;0.52;;;20.90;99.90;;;;;;4446445;32;20064;-62
2022/07/22 00:18:12;;;;;;;0.30;0.30;;;20.80;99.90;;;;;;4445277;32;20080;-63
2022/07/22 00:20:37;;;;;;;2.45;0.40;;;20.90;99.90;;;;;;4430108;32;20069;-63
2022/07/22 00:23:03;;;;;;;1.58;0.98;;;20.90;99.90;;;;;;4408732;32;20532;-62
2022/07/22 00:25:28;;;;;;;0.80;0.55;;;20.90;99.90;;;;;;4405829;32;20119;-62
2022/07/22 00:27:54;;;;;;;1.08;0.40;;;20.90;99.90;;;;;;4442256;32;20124;-62
2022/07/22 00:30:20;;;;;;;0.68;0.60;;;20.90;99.90;;;;;;4446147;32;20078;-62
2022/07/22 00:32:45;;;;;;;0.85;0.47;;;20.70;99.90;;;;;;4445841;32;20073;-62
2022/07/22 00:35:11;;;;;;;1.52;0.88;;;20.70;99.90;;;;;;4432091;32;20064;-62
2022/07/22 00:37:36;;;;;;;0.50;0.50;;;20.80;99.90;;;;;;4431442;32;20439;-62
2022/07/22 00:40:03;;;;;;;0.40;0.40;;;20.90;99.90;;;;;;4430830;32;20164;-62
2022/07/22 00:42:28;;;;;;;0.40;0.40;;;20.80;99.90;;;;;;4430846;32;20130;-62
2022/07/22 00:44:53;;;;;;;0.40;0.40;;;20.70;99.90;;;;;;4436127;32;20512;-62
2022/07/22 00:47:19;;;;;;;0.75;0.60;;;20.70;99.90;;;;;;4445382;32;20076;-62
2022/07/22 00:49:44;;;;;;;1.42;0.93;;;20.70;99.90;;;;;;4445987;32;20111;-62
2022/07/22 00:52:11;;;;;;;0.55;0.55;;;20.60;99.90;;;;;;4429167;32;20060;-62
2022/07/22 00:54:37;;;;;;;0.30;0.30;;;20.60;99.90;;;;;;4414175;32;20659;-62
2022/07/22 00:57:03;;;;;;;0.90;0.47;;;20.60;99.90;;;;;;4431922;32;20065;-62
2022/07/22 00:59:28;;;;;;;1.77;1.20;;;20.70;99.90;;;;;;4429867;32;20065;-62
2022/07/22 01:01:54;;;;;;;0.40;0.40;;;20.60;99.90;;;;;;4416811;32;20065;-62
2022/07/22 01:04:19;;;;;;;0.37;0.35;;;20.60;99.90;;;;;;4430083;32;20134;-62
2022/07/22 01:06:45;;;;;;;0.30;0.30;;;20.50;99.90;;;;;;4428701;32;20076;-62
2022/07/22 01:09:12;;;;;;;1.45;0.73;;;20.60;99.90;;;;;;4415871;32;20164;-62
2022/07/22 01:11:38;;;;;;;0.40;0.40;;;20.60;99.90;;;;;;4417292;32;20082;-62
2022/07/22 01:14:04;;;;;;;1.12;0.37;;;20.60;99.90;;;;;;4430745;32;20061;-62
2022/07/22 01:16:29;;;;;;;0.50;0.50;;;20.60;99.90;;;;;;4444929;32;20069;-60
2022/07/22 01:18:55;;;;;;;0.45;0.45;;;20.70;99.90;;;;;;4445722;32;20567;-62
2022/07/22 01:21:20;;;;;;;0.37;0.37;;;20.70;99.90;;;;;;4437524;32;20092;-62
2022/07/22 01:23:46;;;;;;;0.70;0.50;;;20.70;99.90;;;;;;4424764;32;20068;-62
2022/07/22 01:26:12;;;;;;;0.47;0.47;;;20.60;99.90;;;;;;4427868;32;20073;-62
2022/07/22 01:28:38;;;;;;;0.30;0.30;;;20.60;99.90;;;;;;4444682;32;20444;-62
2022/07/22 01:31:04;;;;;;;0.40;0.40;;;20.60;99.90;;;;;;4430580;32;20525;-62
2022/07/22 01:33:29;;;;;;;0.45;0.35;;;20.50;99.90;;;;;;4442203;32;82496;-62
2022/07/22 01:35:55;;;;;;;0.40;0.40;;;20.40;99.90;;;;;;4445462;32;20065;-62
2022/07/22 01:38:20;;;;;;;0.32;0.32;;;20.40;99.90;;;;;;4441464;32;20136;-62
2022/07/22 01:40:46;;;;;;;0.85;0.45;;;20.40;99.90;;;;;;4415942;32;20065;-62
2022/07/22 01:43:15;;;;;;;0.30;0.30;;;20.30;99.90;;;;;;4416228;32;20532;-62
2022/07/22 01:45:41;;;;;;;0.30;0.30;;;20.30;99.90;;;;;;4438245;32;20069;-62
2022/07/22 01:48:06;;;;;;;0.52;0.52;;;20.30;99.90;;;;;;4445201;32;20116;-62
2022/07/22 01:50:32;;;;;;;0.20;0.20;;;20.30;99.90;;;;;;4456813;32;20060;-62
2022/07/22 01:52:57;;;;;;;0.40;0.40;;;20.30;99.90;;;;;;4439329;32;20125;-62
2022/07/22 01:55:23;;;;;;;0.30;0.30;;;20.20;99.90;;;;;;4450280;32;20068;-62
2022/07/22 01:57:49;;;;;;;0.43;0.32;;;20.30;99.90;;;;;;4445945;32;20057;-62
2022/07/22 02:00:15;;;;;;;0.52;0.40;;;20.40;99.90;;;;;;4428574;32;20077;-62
2022/07/22 02:02:40;;;;;;;0.30;0.30;;;20.30;99.90;;;;;;4430319;32;20521;-62
2022/07/22 02:05:07;;;;;;;0.30;0.30;;;20.30;99.90;;;;;;4429411;32;20089;-62
2022/07/22 02:07:33;;;;;;;1.00;0.47;;;20.20;99.90;;;;;;4439833;32;20073;-62
2022/07/22 02:09:58;;;;;;;0.30;0.30;;;20.20;99.90;;;;;;4444071;32;20081;-62
2022/07/22 02:12:24;;;;;;;0.30;0.30;;;20.20;99.90;;;;;;4431382;32;20427;-62
2022/07/22 02:14:50;;;;;;;0.30;0.30;;;20.10;99.90;;;;;;4430508;32;20077;-62
2022/07/22 02:17:15;;;;;;;0.20;0.20;;;20.10;99.90;;;;;;4443951;32;20073;-62
2022/07/22 02:19:41;;;;;;;2.28;0.80;;;20.10;99.90;;;;;;4430523;32;20394;-63
2022/07/22 02:22:07;;;;;;;3.30;1.05;;;20.00;99.90;;;;;;4413767;32;20509;-62
2022/07/22 02:24:32;;;;;;;0.40;0.40;;;20.00;99.90;;;;;;4412629;32;20077;-62
2022/07/22 02:26:58;;;;;;;0.40;0.40;;;19.80;99.90;;;;;;4428962;32;20528;-62
2022/07/22 02:29:24;;;;;;;0.28;0.28;;;19.90;99.90;;;;;;4429678;32;20069;-63
2022/07/22 02:31:49;;;;;;;0.30;0.30;;;19.90;99.90;;;;;;4428366;32;20524;-62
2022/07/22 02:34:15;;;;;;;0.30;0.30;;;19.80;99.90;;;;;;4428831;32;20082;-62
2022/07/22 02:36:40;;;;;;;0.50;0.50;;;19.80;99.90;;;;;;4415584;32;20057;-62
2022/07/22 02:39:06;;;;;;;0.62;0.52;;;19.90;99.90;;;;;;4428396;32;20077;-62
2022/07/22 02:43:43;;;;;;;0.30;0.30;;;19.90;99.90;;;;;;4403334;32;20501;-62
2022/07/22 02:44:57;;;;;;;0.62;0.40;;;19.90;99.90;;;;;;4407852;32;20137;-62
2022/07/22 02:47:23;;;;;;;0.17;0.17;;;19.90;99.90;;;;;;4434094;32;20065;-62
2022/07/22 02:49:48;;;;;;;0.30;0.30;;;19.80;99.90;;;;;;4446987;32;20068;-62
2022/07/22 02:52:14;;;;;;;0.30;0.30;;;19.90;99.90;;;;;;4430977;32;20053;-61
2022/07/22 02:54:39;;;;;;;0.25;0.25;;;19.80;99.90;;;;;;4436690;32;20117;-62
2022/07/22 02:57:04;;;;;;;0.85;0.50;;;19.80;99.90;;;;;;4444631;32;20078;-62
2022/07/22 02:59:30;;;;;;;1.75;0.80;;;19.90;99.90;;;;;;4431238;32;20120;-62
2022/07/22 03:01:56;;;;;;;0.30;0.30;;;19.90;99.90;;;;;;4430663;32;20061;-62
2022/07/22 03:04:21;;;;;;;2.15;1.10;;;19.80;99.90;;;;;;4416636;32;20121;-62
2022/07/22 03:06:47;;;;;;;0.47;0.47;;;19.80;99.90;;;;;;4431128;32;20053;-62
2022/07/22 03:09:12;;;;;;;0.30;0.30;;;19.70;99.90;;;;;;4431524;32;20081;-62
2022/07/22 03:11:38;;;;;;;0.40;0.40;;;19.70;99.90;;;;;;4431512;32;20111;-62
2022/07/22 03:14:03;;;;;;;0.57;0.40;;;19.80;99.90;;;;;;4431037;32;20123;-62
2022/07/22 03:16:29;;;;;;;0.20;0.20;;;19.70;99.90;;;;;;4417546;32;20136;-62
2022/07/22 03:18:54;;;;;;;0.98;0.50;;;19.80;99.90;;;;;;4430901;32;20438;-62
2022/07/22 03:21:20;;;;;;;0.30;0.30;;;19.80;99.90;;;;;;4422593;32;20069;-62
2022/07/22 03:23:45;;;;;;;0.40;0.40;;;19.70;99.90;;;;;;4405902;32;20421;-62
2022/07/22 03:26:10;;;;;;;0.40;0.40;;;19.60;99.90;;;;;;4442727;32;20078;-62
2022/07/22 03:28:36;;;;;;;0.40;0.40;;;19.60;99.90;;;;;;4446703;32;20065;-62
2022/07/22 03:31:02;;;;;;;0.43;0.40;;;19.60;99.90;;;;;;4447254;32;20115;-62
2022/07/22 03:33:27;;;;;;;0.37;0.37;;;19.70;99.90;;;;;;4446507;32;20329;-62
2022/07/22 03:35:53;;;;;;;0.45;0.45;;;19.70;99.90;;;;;;4446397;32;20418;-62
2022/07/22 03:38:18;;;;;;;4.05;0.40;;;19.70;99.90;;;;;;4445991;32;20077;-62
2022/07/22 03:40:44;;;;;;;1.08;0.47;;;19.80;99.90;;;;;;4445681;32;20086;-62
2022/07/22 03:43:09;;;;;;;0.28;0.28;;;19.80;99.90;;;;;;4432214;32;20530;-62
2022/07/22 03:45:34;;;;;;;0.73;0.45;;;19.80;99.90;;;;;;4446808;32;20069;-62
2022/07/22 03:48:00;;;;;;;0.43;0.30;;;19.70;99.90;;;;;;4445929;32;20509;-62
2022/07/22 03:50:26;;;;;;;3.75;1.62;;;19.70;99.90;;;;;;4445023;32;20444;-62
2022/07/22 03:52:51;;;;;;;0.20;0.20;;;19.70;99.90;;;;;;4427406;32;20073;-62
2022/07/22 03:55:17;;;;;;;0.40;0.40;;;19.70;99.90;;;;;;4434896;32;20065;-62
2022/07/22 03:57:42;;;;;;;0.32;0.32;;;19.70;99.90;;;;;;4439936;32;20085;-62
2022/07/22 04:00:08;;;;;;;0.40;0.40;;;19.70;99.90;;;;;;4431109;32;20533;-62
2022/07/22 04:02:34;;;;;;;0.30;0.30;;;19.70;99.90;;;;;;4431079;32;20430;-62
2022/07/22 04:04:59;;;;;;;0.20;0.20;;;19.70;99.90;;;;;;4416981;32;20127;-62
2022/07/22 04:07:24;;;;;;;0.70;0.50;;;19.80;99.90;;;;;;4430904;32;20073;-62
2022/07/22 04:09:50;;;;;;;1.50;0.50;;;19.80;99.90;;;;;;4422459;32;20065;-62
2022/07/22 04:12:15;;;;;;;0.40;0.40;;;19.80;99.90;;;;;;4432265;32;20084;-62
2022/07/22 04:14:41;;;;;;;0.30;0.30;;;19.70;99.90;;;;;;4441010;32;20434;-62
2022/07/22 04:17:06;;;;;;;0.30;0.30;;;19.70;99.90;;;;;;4431148;32;20076;-62
2022/07/22 04:19:32;;;;;;;0.65;0.47;;;19.70;99.90;;;;;;4435453;32;20072;-62
2022/07/22 04:21:57;;;;;;;0.57;0.40;;;19.80;99.90;;;;;;4421729;32;20081;-62
2022/07/22 04:24:23;;;;;;;0.40;0.40;;;19.90;99.90;;;;;;4411957;32;20125;-62
2022/07/22 04:26:48;;;;;;;0.75;0.73;;;19.90;99.90;;;;;;4431021;32;20061;-62
2022/07/22 04:29:14;;;;;;;0.40;0.40;;;20.00;99.90;;;;;;4409677;32;20068;-62
2022/07/22 04:31:39;;;;;;;0.30;0.30;;;19.90;99.90;;;;;;4431935;32;20082;-62
2022/07/22 04:34:05;;;;;;;0.40;0.40;;;19.90;99.90;;;;;;4421902;32;20124;-62
2022/07/22 04:36:30;;;;;;;0.30;0.30;;;20.00;99.90;;;;;;4435934;32;20069;-62
2022/07/22 04:38:56;;;;;;;0.55;0.50;;;19.80;99.90;;;;;;4427251;32;20061;-62
2022/07/22 04:41:22;;;;;;;0.50;0.50;;;19.80;99.90;;;;;;4430790;32;20074;-62
2022/07/22 04:43:48;;;;;;;0.40;0.40;;;19.80;99.90;;;;;;4430249;32;20508;-63
2022/07/22 04:46:13;;;;;;;0.45;0.40;;;19.90;99.90;;;;;;4441701;32;20068;-63
2022/07/22 04:48:39;;;;;;;0.30;0.30;;;19.90;99.90;;;;;;4431669;32;20474;-63
2022/07/22 04:51:04;;;;;;;0.47;0.43;;;20.00;99.90;;;;;;4439688;32;20149;-63
2022/07/22 04:53:30;;;;;;;1.27;0.62;;;19.80;99.90;;;;;;4424182;32;20156;-62
2022/07/22 04:55:55;;;;;;;0.40;0.40;;;19.70;99.90;;;;;;4439515;32;20132;-62
2022/07/22 04:58:21;;;;;;;0.62;0.57;;;19.80;99.90;;;;;;4446308;32;20398;-62
2022/07/22 05:00:47;;;;;;;0.40;0.40;;;19.80;99.90;;;;;;4440146;32;20122;-62
2022/07/22 05:03:13;;;;;;;2.00;0.75;;;19.90;99.90;;;;;;4435972;32;20082;-62
2022/07/22 05:05:39;;;;;;;2.45;0.80;;;19.90;99.90;;;;;;4435690;32;21031;-63
2022/07/22 05:08:04;;;;;;;0.28;0.28;;;20.00;99.90;;;;;;4436187;32;20105;-62
2022/07/22 05:10:30;;;;;;;2.92;1.08;;;20.00;99.90;;;;;;4420680;32;20065;-63
2022/07/22 05:12:56;;;;;;;0.82;0.60;;;20.10;99.90;;;;;;4430009;32;20262;-63
2022/07/22 05:15:21;;;;;;;0.40;0.40;;;20.00;99.90;;;;;;4436775;32;20115;-63
2022/07/22 05:17:47;;;;;;;0.98;0.52;;;20.00;99.90;;;;;;4433419;32;20110;-63
2022/07/22 05:20:13;;;;;;;0.45;0.45;;;20.10;99.90;;;;;;4434483;32;20078;-63
2022/07/22 05:22:38;;;;;;;0.50;0.50;;;20.10;99.90;;;;;;4417512;32;20513;-63
2022/07/22 05:25:04;;;;;;;0.70;0.70;;;20.10;99.90;;;;;;4428056;32;20064;-63
2022/07/22 05:27:30;;;;;;;1.23;0.60;;;20.10;99.90;;;;;;4431102;32;20060;-62
2022/07/22 05:29:56;;;;;;;0.40;0.40;;;20.10;99.90;;;;;;4428834;32;20081;-62
2022/07/22 05:32:22;;;;;;;0.35;0.35;;;20.20;99.90;;;;;;4421150;32;20065;-63
2022/07/22 05:34:47;;;;;;;1.12;0.60;;;20.20;99.90;;;;;;4422123;32;20560;-63
2022/07/22 05:37:13;;;;;;;0.20;0.20;;;20.30;99.90;;;;;;4415221;32;20073;-62
2022/07/22 05:39:38;;;;;;;2.33;0.68;;;20.30;99.90;;;;;;4415932;32;20077;-62
2022/07/22 05:42:04;;;;;;;0.40;0.40;;;20.30;99.90;;;;;;4426076;32;20540;-62
2022/07/22 05:44:29;;;;;;;0.57;0.50;;;20.20;99.90;;;;;;4421049;32;20585;-63
2022/07/22 05:46:55;;;;;;;1.37;0.40;;;20.20;99.90;;;;;;4426403;32;20049;-64
2022/07/22 05:49:21;;;;;;;1.40;0.95;;;20.30;99.90;;;;;;4444817;32;20085;-64
2022/07/22 05:51:47;;;;;;;0.30;0.30;;;20.40;99.90;;;;;;4432024;32;20069;-62
2022/07/22 05:54:12;;;;;;;0.70;0.70;;;20.40;99.90;;;;;;4425645;32;20518;-62
2022/07/22 05:56:38;;;;;;;0.75;0.50;;;20.40;99.90;;;;;;4443471;32;20085;-62
2022/07/22 05:59:03;;;;;;;0.30;0.30;;;20.40;99.90;;;;;;4439736;32;20098;-63
2022/07/22 06:01:29;;;;;;;0.40;0.40;;;20.40;99.90;;;;;;4422593;32;20533;-63
2022/07/22 06:03:54;;;;;;;3.05;1.00;;;20.40;99.90;;;;;;4418581;32;20116;-63
2022/07/22 06:06:19;;;;;;;0.50;0.50;;;20.40;99.90;;;;;;4430886;32;20074;-63
2022/07/22 06:08:45;;;;;;;0.43;0.43;;;20.30;99.90;;;;;;4443610;32;20142;-63
2022/07/22 06:11:10;;;;;;;1.23;0.40;;;20.30;99.90;;;;;;4444412;32;20188;-62
2022/07/22 06:13:37;;;;;;;0.20;0.20;;;20.40;99.90;;;;;;4435247;32;20084;-62
2022/07/22 06:16:03;;;;;;;0.35;0.35;;;20.40;99.90;;;;;;4436197;32;20232;-63
2022/07/22 06:18:28;;;;;;;0.52;0.52;;;20.50;99.90;;;;;;4444740;32;20119;-63
2022/07/22 06:20:54;;;;;;;1.85;1.10;;;20.50;99.90;;;;;;4440199;32;20061;-63
2022/07/22 06:23:19;;;;;;;4.15;0.50;;;20.60;99.90;;;;;;4422554;32;20069;-62
2022/07/22 06:25:44;;;;;;;1.77;0.80;;;20.50;99.90;;;;;;4435962;32;20120;-63
2022/07/22 06:28:10;;;;;;;0.55;0.55;;;20.50;99.90;;;;;;4443803;32;20508;-63
2022/07/22 06:30:36;;;;;;;0.98;0.73;;;20.50;99.90;;;;;;4424897;32;20069;-63
2022/07/22 06:33:02;;;;;;;0.30;0.30;;;20.60;99.90;;;;;;4428130;32;20065;-63
2022/07/22 06:35:28;;;;;;;3.15;1.12;;;20.70;99.90;;;;;;4438220;32;20561;-62
2022/07/22 06:37:53;;;;;;;0.30;0.30;;;20.60;99.90;;;;;;4444578;32;20099;-62
2022/07/22 06:40:19;;;;;;;0.30;0.30;;;20.60;99.90;;;;;;4430123;32;20061;-63
2022/07/22 06:42:44;;;;;;;1.37;0.50;;;20.60;99.90;;;;;;4437501;32;20069;-65
2022/07/22 06:45:10;;;;;;;1.02;0.60;;;20.60;99.90;;;;;;4432545;32;20061;-63
2022/07/22 06:47:36;;;;;;;0.40;0.40;;;20.70;99.90;;;;;;4442801;32;20065;-63
2022/07/22 06:50:03;;;;;;;3.97;0.73;;;20.80;99.90;;;;;;4443712;32;20064;-64
2022/07/22 06:52:28;;;;;;;0.30;0.30;;;20.90;99.90;;;;;;4425150;32;20110;-63
2022/07/22 06:54:54;;;;;;;1.45;0.62;;;21.10;99.90;;;;;;4414161;32;20516;-63
2022/07/22 06:57:19;;;;;;;0.57;0.57;;;21.20;99.90;;;;;;4443598;32;20131;-63
2022/07/22 06:59:45;;;;;;;0.40;0.40;;;21.20;99.90;;;;;;4435444;32;20065;-63
2022/07/22 07:02:10;;;;;;;0.50;0.50;;;21.20;99.90;;;;;;4418926;32;20084;-63
2022/07/22 07:04:36;;;;;;;0.47;0.47;;;21.20;99.90;;;;;;4419238;32;20106;-63
2022/07/22 07:07:01;;;;;;;0.25;0.25;;;21.10;99.90;;;;;;4435877;32;20517;-63
2022/07/22 07:09:27;;;;;;;0.25;0.25;;;21.20;99.90;;;;;;4443610;32;20061;-63
2022/07/22 07:11:52;;;;;;;0.40;0.40;;;21.30;99.90;;;;;;4440419;32;20528;-63
2022/07/22 07:14:18;;;;;;;0.50;0.50;;;21.40;99.90;;;;;;4433415;32;20060;-62
2022/07/22 07:16:43;;;;;;;0.30;0.30;;;21.50;99.90;;;;;;4438674;32;20086;-63
2022/07/22 07:19:09;;;;;;;2.90;1.05;;;21.50;99.90;;;;;;4444029;32;20073;-62
2022/07/22 07:21:34;;;;;;;0.30;0.30;;;21.50;99.90;;;;;;4434176;32;20847;-62
2022/07/22 07:24:01;;;;;;;0.30;0.30;;;21.50;99.90;;;;;;4408780;32;20073;-63
2022/07/22 07:26:27;;;;;;;1.65;0.77;;;21.60;99.90;;;;;;4440306;32;20080;-64
2022/07/22 07:28:52;;;;;;;0.30;0.30;;;21.80;99.90;;;;;;4446818;32;20521;-63
2022/07/22 07:31:18;;;;;;;0.30;0.30;;;22.00;99.90;;;;;;4425776;32;20106;-66
2022/07/22 07:33:44;;;;;;;1.92;1.48;;;21.90;99.90;;;;;;4419003;32;20081;-62
2022/07/22 07:36:09;;;;;;;0.40;0.40;;;21.90;99.90;;;;;;4427579;32;20120;-62
2022/07/22 07:38:36;;;;;;;2.33;0.98;;;21.90;99.90;;;;;;4429378;32;20116;-62
2022/07/22 07:41:01;;;;;;;0.62;0.60;;;22.00;99.90;;;;;;4438486;32;20069;-64
2022/07/22 07:43:27;;;;;;;0.30;0.30;;;22.00;99.90;;;;;;4438284;32;20578;-64
2022/07/22 07:45:52;;;;;;;0.85;0.40;;;22.20;99.90;;;;;;4436695;32;20081;-64
2022/07/22 07:48:17;;;;;;;0.35;0.35;;;22.20;99.90;;;;;;4445762;32;20077;-63
2022/07/22 07:50:43;;;;;;;0.37;0.37;;;22.20;99.90;;;;;;4443739;32;20120;-63
2022/07/22 07:53:12;;;;;;;0.40;0.40;;;22.10;99.90;;;;;;4424629;32;20419;-64
2022/07/22 07:55:39;;;;;;;0.65;0.43;;;21.90;99.90;;;;;;4423445;32;20127;-64
2022/07/22 07:58:05;;;;;;;0.30;0.30;;;22.00;99.90;;;;;;4445364;32;20078;-63
2022/07/22 08:00:32;;;;;;;0.43;0.43;;;22.30;99.90;;;;;;4443356;32;20572;-63
2022/07/22 08:02:58;;;;;;;0.60;0.40;;;22.40;99.90;;;;;;4434322;32;20072;-63
2022/07/22 08:05:24;;;;;;;0.22;0.22;;;22.70;99.90;;;;;;4439952;32;20121;-63
2022/07/22 08:07:50;;;;;;;0.35;0.35;;;22.70;99.90;;;;;;4432392;32;20516;-62
2022/07/22 08:10:17;;;;;;;0.45;0.45;;;22.60;99.90;;;;;;4431640;32;20428;-63
2022/07/22 08:12:42;;;;;;;0.50;0.50;;;22.40;99.90;;;;;;4440983;32;20072;-63
2022/07/22 08:15:08;;;;;;;3.15;0.60;;;22.40;99.90;;;;;;4433395;32;20077;-62
2022/07/22 08:17:34;;;;;;;1.45;0.60;;;22.30;99.90;;;;;;4443290;32;20073;-63
2022/07/22 08:19:59;;;;;;;1.45;0.62;;;22.40;99.90;;;;;;4430852;32;20528;-63
2022/07/22 08:22:25;;;;;;;0.30;0.30;;;22.60;99.90;;;;;;4427771;32;20077;-62
2022/07/22 08:24:50;;;;;;;0.50;0.40;;;22.60;99.90;;;;;;4430658;32;20085;-62
2022/07/22 08:27:16;;;;;;;0.20;0.20;;;22.60;99.90;;;;;;4431078;32;20528;-63
2022/07/22 08:29:41;;;;;;;0.30;0.30;;;22.70;99.90;;;;;;4442670;32;20061;-64
2022/07/22 08:32:07;;;;;;;0.32;0.32;;;22.90;99.90;;;;;;4407130;32;20093;-63
2022/07/22 08:34:32;;;;;;;0.20;0.20;;;23.00;99.90;;;;;;4420661;32;20070;-63
2022/07/22 08:36:58;;;;;;;0.20;0.20;;;23.00;99.90;;;;;;4430128;32;20078;-63
2022/07/22 08:39:23;;;;;;;0.73;0.28;;;22.80;99.90;;;;;;4443918;32;20463;-63
2022/07/22 08:41:49;;;;;;;0.20;0.20;;;22.90;99.90;;;;;;4443161;32;20064;-63
2022/07/22 08:44:15;;;;;;;2.03;0.57;;;22.90;99.90;;;;;;4420677;32;20194;-63
2022/07/22 08:46:44;;;;;;;1.17;0.37;;;22.80;99.90;;;;;;4438424;32;20160;-63
2022/07/22 08:49:12;;;;;;;0.45;0.30;;;22.80;99.90;;;;;;4445932;32;20077;-63
2022/07/22 08:51:38;;;;;;;1.45;0.43;;;22.70;99.90;;;;;;4420767;32;20126;-62
2022/07/22 08:54:03;;;;;;;0.62;0.50;;;22.70;99.90;;;;;;4426696;32;20057;-62
2022/07/22 08:56:29;;;;;;;1.10;0.40;;;22.50;99.90;;;;;;4428066;32;20065;-64
2022/07/22 08:58:54;;;;;;;0.37;0.37;;;22.50;99.90;;;;;;4446205;32;20060;-63
2022/07/22 09:01:20;;;;;;;0.80;0.68;;;22.50;99.90;;;;;;4431804;32;20548;-62
2022/07/22 09:03:55;;;;;;;1.08;0.75;;;22.50;99.90;;;;;;4418375;32;20281;-64
2022/07/22 09:06:22;;;;;;;0.37;0.37;;;22.50;99.90;;;;;;4417894;32;20475;-63
2022/07/22 09:08:53;;;;;;;0.35;0.35;;;22.50;99.90;;;;;;4444962;32;20520;-64
2022/07/22 09:11:21;;;;;;;0.30;0.30;;;22.40;99.90;;;;;;4430352;32;20120;-65
2022/07/22 09:13:47;;;;;;;0.22;0.22;;;22.40;99.90;;;;;;4419819;32;20073;-63
2022/07/22 09:16:13;;;;;;;0.25;0.25;;;22.50;99.90;;;;;;4435630;32;20110;-63
2022/07/22 09:18:54;;;;;;;0.47;0.47;;;22.60;99.90;;;;;;4430472;32;20197;-63
2022/07/22 09:21:21;;;;;;;0.22;0.22;;;22.60;99.90;;;;;;4436882;32;20580;-63
2022/07/22 09:23:46;;;;;;;0.30;0.30;;;22.60;99.90;;;;;;4424210;32;20139;-63
2022/07/22 09:26:30;;;;;;;0.45;0.45;;;22.60;99.90;;;;;;4441135;32;20525;-63
2022/07/22 09:28:57;;;;;;;0.75;0.75;;;22.50;99.90;;;;;;4445425;32;20524;-64
2022/07/22 09:31:25;;;;;;;0.50;0.50;;;22.30;99.90;;;;;;4421543;32;20342;-65
2022/07/22 09:33:53;;;;;;;1.65;0.57;;;22.20;99.90;;;;;;4418044;32;20086;-64
2022/07/22 09:36:19;;;;;;;0.65;0.20;;;22.20;99.90;;;;;;4438776;32;20077;-65
2022/07/22 09:38:44;;;;;;;0.85;0.45;;;22.10;99.90;;;;;;4443592;32;20060;-64
2022/07/22 09:41:10;;;;;;;1.23;0.52;;;22.10;99.90;;;;;;4430941;32;20060;-64
2022/07/22 09:43:36;;;;;;;0.25;0.25;;;22.00;99.90;;;;;;4434392;32;20069;-64
2022/07/22 09:46:03;;;;;;;0.32;0.32;;;22.10;99.90;;;;;;4410766;32;20573;-64
2022/07/22 09:48:29;;;;;;;0.77;0.37;;;22.20;99.90;;;;;;4429290;32;20070;-65
2022/07/22 09:50:56;;;;;;;0.20;0.20;;;22.20;99.90;;;;;;4424777;32;21175;-63
2022/07/22 09:53:24;;;;;;;0.28;0.25;;;22.30;99.90;;;;;;4406900;32;20150;-63
2022/07/22 09:55:50;;;;;;;0.30;0.30;;;22.30;99.90;;;;;;4435110;32;20073;-63
2022/07/22 09:58:16;;;;;;;0.25;0.25;;;22.20;99.90;;;;;;4431375;32;20100;-63
2022/07/22 10:00:42;;;;;;;0.30;0.30;;;22.30;99.90;;;;;;4425492;32;20516;-63
2022/07/22 10:03:11;;;;;;;0.25;0.25;;;22.40;99.90;;;;;;4417846;32;20327;-62
2022/07/22 10:05:38;;;;;;;0.22;0.22;;;22.50;99.90;;;;;;4438716;32;20061;-63
2022/07/22 10:08:05;;;;;;;0.25;0.25;;;22.60;99.90;;;;;;4445260;32;20065;-63
2022/07/22 10:10:33;;;;;;;0.20;0.20;;;22.50;99.90;;;;;;4444852;32;20069;-63
2022/07/22 10:13:00;;;;;;;0.20;0.20;;;22.60;99.90;;;;;;4437399;32;20830;-62
2022/07/22 10:15:27;;;;;;;0.32;0.32;;;22.70;99.90;;;;;;4431470;32;20085;-63
2022/07/22 10:17:56;;;;;;;0.22;0.22;;;23.10;99.90;;;;;;4417508;32;20076;-64
2022/07/22 10:20:24;;;;;;;2.90;1.08;;;23.60;99.90;;;;;;4442209;32;20087;-64
2022/07/22 10:22:54;;;;;;;0.32;0.30;;;23.80;99.90;;;;;;4422897;32;20304;-63
2022/07/22 10:25:22;;;;;;;0.30;0.30;;;23.90;99.90;;;;;;4418440;32;20069;-64
2022/07/22 10:27:50;;;;;;;0.30;0.30;;;23.90;99.90;;;;;;4417996;32;20081;-64
2022/07/22 10:30:19;;;;;;;0.70;0.30;;;23.90;99.90;;;;;;4442546;32;20481;-64
2022/07/22 10:32:45;;;;;;;0.13;0.13;;;24.00;99.90;;;;;;4416451;32;20069;-64
2022/07/22 10:35:13;;;;;;;0.10;0.10;;;24.00;99.90;;;;;;4422175;32;20410;-64
2022/07/22 10:37:41;;;;;;;0.20;0.20;;;24.40;99.90;;;;;;4444363;32;20081;-64
2022/07/22 10:40:11;;;;;;;0.30;0.30;;;24.70;99.90;;;;;;4416664;32;20064;-63
2022/07/22 10:42:58;;;;;;;0.27;0.27;;;24.80;99.90;;;;;;4437568;32;20064;-64
2022/07/22 10:45:25;;;;;;;0.28;0.28;;;24.50;99.90;;;;;;4414781;32;20220;-62
2022/07/22 10:47:56;;;;;;;0.10;0.10;;;24.30;99.90;;;;;;4400965;32;20129;-63
2022/07/22 10:50:40;;;;;;;0.20;0.20;;;24.30;99.90;;;;;;4427408;32;20544;-63
2022/07/22 10:53:09;;;;;;;0.40;0.25;;;24.70;99.90;;;;;;4407243;32;20100;-63
2022/07/22 10:55:36;;;;;;;0.20;0.10;;;25.10;99.90;;;;;;4400521;32;20426;-63
2022/07/22 10:58:39;;;;;;;0.43;0.43;;;25.20;99.90;;;;;;4414104;32;20094;-63
2022/07/22 11:01:09;;;;;;;0.17;0.17;;;25.00;99.90;;;;;;4427399;32;20101;-65
2022/07/22 11:03:38;;;;;;;0.13;0.13;;;25.00;99.90;;;;;;4433769;32;20065;-64
2022/07/22 11:06:22;;;;;;;0.20;0.20;;;24.90;99.90;;;;;;4442980;32;20807;-64
2022/07/22 11:08:51;;;;;;;0.20;0.20;;;24.80;99.90;;;;;;4446123;32;20200;-65
2022/07/22 11:11:18;;;;;;;0.20;0.20;;;24.50;99.90;;;;;;4445798;32;20551;-64
2022/07/22 11:13:45;;;;;;;0.20;0.20;;;24.60;99.90;;;;;;4435357;32;20376;-64
2022/07/22 11:16:22;;;;;;;0.30;0.30;;;24.40;99.90;;;;;;4424012;32;20524;-64
2022/07/22 11:18:51;;;;;;;0.35;0.35;;;24.30;99.90;;;;;;4431673;32;20579;-64
2022/07/22 11:21:19;;;;;;;0.22;0.22;;;24.50;99.90;;;;;;4425342;32;20528;-64
2022/07/22 11:23:48;;;;;;;0.15;0.15;;;24.50;99.90;;;;;;4411547;32;20578;-64
2022/07/22 11:26:16;;;;;;;0.20;0.20;;;24.40;99.90;;;;;;4427923;32;20080;-65
2022/07/22 11:28:43;;;;;;;0.13;0.13;;;24.50;99.90;;;;;;4431995;32;20089;-64
2022/07/22 11:31:10;;;;;;;0.55;0.40;;;24.80;99.90;;;;;;4438289;32;20081;-64
2022/07/22 11:33:35;;;;;;;0.20;0.20;;;24.90;99.90;;;;;;4404402;32;20062;-64
2022/07/22 11:36:06;;;;;;;0.37;0.32;;;24.90;99.90;;;;;;4427453;32;20541;-62
2022/07/22 11:38:44;;;;;;;0.10;0.10;;;24.70;99.90;;;;;;4417816;32;20057;-62
2022/07/22 11:41:11;;;;;;;0.15;0.15;;;24.70;99.90;;;;;;4417237;32;20708;-62
2022/07/22 11:43:41;;;;;;;0.17;0.17;;;25.00;99.90;;;;;;4420729;32;20078;-63
2022/07/22 11:46:07;;;;;;;;;;;25.20;99.90;;;;;;4405567;32;20073;-63
2022/07/22 11:48:32;;;;;;;0.22;0.22;;;25.30;99.90;;;;;;4432318;32;20412;-63
2022/07/22 11:51:01;;;;;;;0.30;0.30;;;25.40;99.90;;;;;;4440480;32;20065;-63
2022/07/22 11:53:27;;;;;;;0.10;0.10;;;25.70;99.90;;;;;;4411323;32;20168;-63
2022/07/22 11:55:57;;;;;;;0.25;0.25;;;26.20;99.90;;;;;;4412141;32;20547;-63
2022/07/22 11:58:41;;;;;;;0.20;0.20;;;26.50;99.90;;;;;;4420088;32;20123;-64
2022/07/22 12:01:09;;;;;;;0.17;0.17;;;26.40;99.90;;;;;;4426225;32;20068;-63
2022/07/22 12:03:37;;;;;;;0.00;0.00;;;25.90;99.90;;;;;;4433668;32;20180;-63
2022/07/22 12:06:06;;;;;;;0.17;0.17;;;25.70;99.90;;;;;;4428527;32;20077;-63
2022/07/22 12:08:33;;;;;;;0.13;0.13;;;25.60;99.90;;;;;;4432736;32;20061;-64
2022/07/22 12:10:59;;;;;;;0.20;0.20;;;25.50;99.90;;;;;;4432404;32;20057;-64
2022/07/22 12:13:30;;;;;;;0.10;0.10;;;25.30;99.90;;;;;;4435867;32;20077;-63
2022/07/22 12:15:55;;;;;;;;;;;25.10;99.90;;;;;;4420342;32;20525;-64
2022/07/22 12:18:24;;;;;;;0.15;0.15;;;25.00;99.90;;;;;;4445209;32;19948;-64
2022/07/22 12:20:50;;;;;;;0.20;0.20;;;24.90;99.90;;;;;;4441046;32;20065;-64
2022/07/22 12:23:17;;;;;;;0.30;0.30;;;24.90;99.90;;;;;;4424717;32;20085;-64
2022/07/22 12:25:55;;;;;;;0.15;0.10;;;24.90;99.90;;;;;;4436639;32;20488;-64
2022/07/22 12:28:22;;;;;;;0.30;0.30;;;25.00;99.90;;;;;;4445270;32;20434;-64
2022/07/22 12:30:50;;;;;;;0.20;0.20;;;25.00;99.90;;;;;;4414702;32;20144;-64
2022/07/22 12:33:17;;;;;;;0.20;0.20;;;25.10;99.90;;;;;;4417799;32;20086;-62
2022/07/22 12:35:43;;;;;;;0.10;0.10;;;25.30;99.90;;;;;;4425854;32;20064;-63
2022/07/22 12:38:10;;;;;;;0.10;0.10;;;25.20;99.90;;;;;;4445147;32;20053;-63
2022/07/22 12:40:37;;;;;;;0.73;0.15;;;25.20;99.90;;;;;;4445175;32;20062;-64
2022/07/22 12:43:06;;;;;;;0.10;0.10;;;25.40;99.90;;;;;;4424541;32;20085;-63
2022/07/22 12:45:33;;;;;;;0.65;0.45;;;25.50;99.90;;;;;;4416199;32;20072;-63